Hooper Bay Airport Hooper Bay US
ICAO: PAHP
IATA:
Category: Medium
Scheduled Services:

Elevation: 13 ft
TransAlt. 18000 ft.

Airport Communications:
AWOS 3:135.1
CTAF:123
KENAI RDO:122.4
TWEB:115.2

PAHP Zoom In..

Runways:

(A) RW 13 length 3300 ft width 75 ft
---- / hdg 136

(B) RW 31 length 3300 ft width 75 ft
---- / hdg 316

Location; PAHP
Day. 25 / Time. 12.27 Zulu
* Altimeter: 29.13
* Temperature: 01° c. 33.8°f.
* Wind from: 170° Speed 18 kn.
Dewpoint: 00° c.
Visibility: 10 Statute Miles.
Clouds: Scattered 600 ft.

PAHP 251227Z AUTO 17018KT 10SM SCT006 01/00 A2913 RMK AO2 FZRANO


Wind From 170°
Speed 18 kn.

  YouTube Music Video
 
jpsmedia.com for Web Design  worldairports.se 2018   terms of use